createdAt,value
2019-01-15T00:02:25.353Z,1.80
2019-01-15T00:04:54.001Z,1.70
2019-01-15T00:07:22.649Z,1.80
2019-01-15T00:09:51.317Z,1.80
2019-01-15T00:12:20.002Z,1.80
2019-01-15T00:14:48.682Z,1.70
2019-01-15T00:17:17.377Z,1.80
2019-01-15T00:19:46.027Z,1.80
2019-01-15T00:22:14.702Z,1.80
2019-01-15T00:24:43.351Z,1.80
2019-01-15T00:27:12.137Z,1.80
2019-01-15T00:29:40.826Z,1.80
2019-01-15T00:32:09.486Z,1.80
2019-01-15T00:34:38.152Z,1.80
2019-01-15T00:37:06.841Z,1.70
2019-01-15T00:39:35.516Z,1.80
2019-01-15T00:42:04.187Z,1.80
2019-01-15T00:44:32.862Z,1.80
2019-01-15T00:47:01.515Z,1.80
2019-01-15T00:49:30.162Z,1.80
2019-01-15T00:51:58.850Z,1.70
2019-01-15T00:54:27.505Z,1.70
2019-01-15T00:56:56.149Z,1.70
2019-01-15T00:59:24.822Z,1.80
2019-01-15T01:01:53.525Z,1.80
2019-01-15T01:04:22.177Z,1.70
2019-01-15T01:06:50.973Z,1.70
2019-01-15T01:09:20.122Z,1.70
2019-01-15T01:11:48.810Z,1.70
2019-01-15T01:14:17.461Z,1.80
2019-01-15T01:16:46.111Z,1.80
2019-01-15T01:19:14.776Z,1.80
2019-01-15T01:21:43.432Z,1.70
2019-01-15T01:24:12.131Z,1.80
2019-01-15T01:26:40.778Z,1.80
2019-01-15T01:29:09.433Z,1.80
2019-01-15T01:31:38.120Z,1.80
2019-01-15T01:34:06.766Z,1.80
2019-01-15T01:36:35.445Z,1.80
2019-01-15T01:39:07.721Z,1.80
2019-01-15T01:41:36.542Z,1.80
2019-01-15T01:44:05.609Z,1.80
2019-01-15T01:46:34.261Z,1.90
2019-01-15T01:49:02.910Z,1.80
2019-01-15T01:51:31.577Z,1.90
2019-01-15T01:54:00.274Z,2.00
2019-01-15T01:56:28.917Z,2.00
2019-01-15T01:58:57.570Z,2.00
2019-01-15T02:01:26.240Z,2.00
2019-01-15T02:03:54.877Z,1.90
2019-01-15T02:06:24.937Z,1.90
2019-01-15T02:08:53.701Z,1.80
2019-01-15T02:11:22.349Z,1.90
2019-01-15T02:13:51.117Z,1.90
2019-01-15T02:16:19.997Z,1.90
2019-01-15T02:18:48.669Z,1.90
2019-01-15T02:21:17.323Z,1.90
2019-01-15T02:23:45.970Z,1.90
2019-01-15T02:26:14.639Z,1.90
2019-01-15T02:28:43.309Z,1.90
2019-01-15T02:33:49.114Z,1.90
2019-01-15T02:36:17.787Z,1.90
2019-01-15T02:38:46.429Z,1.90
2019-01-15T02:41:15.097Z,1.90
2019-01-15T02:43:43.830Z,1.90
2019-01-15T02:46:12.492Z,1.90
2019-01-15T02:48:41.145Z,1.90
2019-01-15T02:51:09.881Z,2.00
2019-01-15T02:53:38.576Z,2.00
2019-01-15T02:56:07.219Z,2.10
2019-01-15T02:58:35.885Z,2.00
2019-01-15T03:01:04.647Z,2.10
2019-01-15T03:03:33.318Z,2.00
2019-01-15T03:06:01.994Z,2.00
2019-01-15T03:08:30.637Z,2.00
2019-01-15T03:10:59.291Z,2.00
2019-01-15T03:13:27.987Z,2.10
2019-01-15T03:15:56.717Z,2.10
2019-01-15T03:18:25.450Z,2.10
2019-01-15T03:20:54.089Z,2.10
2019-01-15T03:23:22.758Z,2.20
2019-01-15T03:25:51.419Z,2.10
2019-01-15T03:28:20.089Z,2.10
2019-01-15T03:30:48.735Z,2.20
2019-01-15T03:33:17.388Z,2.10
2019-01-15T03:35:46.050Z,2.20
2019-01-15T03:38:14.722Z,2.20
2019-01-15T03:40:43.369Z,2.20
2019-01-15T03:43:12.079Z,2.30
2019-01-15T03:45:40.732Z,2.20
2019-01-15T03:48:09.436Z,2.20
2019-01-15T03:50:38.084Z,2.30
2019-01-15T03:53:06.749Z,2.30
2019-01-15T03:55:35.482Z,2.20
2019-01-15T03:58:04.257Z,2.30
2019-01-15T04:00:32.899Z,2.20
2019-01-15T04:03:01.569Z,2.20
2019-01-15T04:05:30.356Z,2.20
2019-01-15T04:07:59.102Z,2.20
2019-01-15T04:10:28.073Z,2.20
2019-01-15T04:12:56.714Z,2.20
2019-01-15T04:15:25.386Z,2.20
2019-01-15T04:17:54.058Z,2.30
2019-01-15T04:20:22.714Z,2.30
2019-01-15T04:22:51.384Z,2.30
2019-01-15T04:25:20.033Z,2.30
2019-01-15T04:27:48.709Z,2.30
2019-01-15T04:30:19.660Z,2.30
2019-01-15T04:32:48.348Z,2.30
2019-01-15T04:35:17.187Z,2.40
2019-01-15T04:37:45.934Z,2.40
2019-01-15T04:40:19.137Z,2.40
2019-01-15T04:42:47.810Z,2.50
2019-01-15T04:45:20.425Z,2.40
2019-01-15T04:47:49.087Z,2.40
2019-01-15T04:50:18.055Z,2.50
2019-01-15T04:52:48.289Z,2.50
2019-01-15T04:55:16.969Z,2.60
2019-01-15T04:57:45.617Z,2.60
2019-01-15T05:00:16.972Z,2.60
2019-01-15T05:02:45.657Z,2.60
2019-01-15T05:05:14.438Z,2.60
2019-01-15T05:07:43.073Z,2.60
2019-01-15T05:10:14.366Z,2.70
2019-01-15T05:12:43.205Z,2.70
2019-01-15T05:15:16.085Z,2.70
2019-01-15T05:17:44.880Z,2.70
2019-01-15T05:20:20.051Z,2.80
2019-01-15T05:22:48.735Z,2.80
2019-01-15T05:25:19.656Z,2.80
2019-01-15T05:27:48.395Z,2.80
2019-01-15T05:30:19.860Z,2.80
2019-01-15T05:32:48.708Z,2.80
2019-01-15T05:35:17.386Z,2.80
2019-01-15T05:37:46.147Z,2.80
2019-01-15T05:40:15.918Z,2.80
2019-01-15T05:42:44.685Z,2.80
2019-01-15T05:45:17.613Z,2.90
2019-01-15T05:47:46.595Z,2.90
2019-01-15T05:50:16.824Z,2.90
2019-01-15T05:52:45.489Z,3.00
2019-01-15T05:55:14.134Z,3.00
2019-01-15T05:57:42.801Z,3.00
2019-01-15T06:00:16.495Z,3.00
2019-01-15T06:02:45.170Z,3.10
2019-01-15T06:05:14.521Z,3.10
2019-01-15T06:07:43.166Z,3.10
2019-01-15T06:10:15.716Z,3.10
2019-01-15T06:12:44.540Z,3.10
2019-01-15T06:15:14.911Z,3.10
2019-01-15T06:17:43.559Z,3.20
2019-01-15T06:20:15.493Z,3.20
2019-01-15T06:22:44.142Z,3.30
2019-01-15T06:25:13.206Z,3.30
2019-01-15T06:27:42.074Z,3.30
2019-01-15T06:30:21.772Z,3.30
2019-01-15T06:32:50.637Z,3.30
2019-01-15T06:35:19.311Z,3.30
2019-01-15T06:37:47.957Z,3.30
2019-01-15T06:40:18.237Z,3.30
2019-01-15T06:42:47.098Z,3.30
2019-01-15T06:45:27.721Z,3.40
2019-01-15T06:47:56.373Z,3.40
2019-01-15T06:50:25.058Z,3.40
2019-01-15T06:52:53.724Z,3.40
2019-01-15T06:55:23.595Z,3.40
2019-01-15T06:57:52.454Z,3.50
2019-01-15T07:00:28.996Z,3.50
2019-01-15T07:02:58.165Z,3.60
2019-01-15T07:05:26.807Z,3.60
2019-01-15T07:07:55.458Z,3.60
2019-01-15T07:10:38.309Z,3.60
2019-01-15T07:13:07.101Z,3.70
2019-01-15T07:15:35.757Z,3.70
2019-01-15T07:18:04.527Z,3.70
2019-01-15T07:20:33.205Z,3.70
2019-01-15T07:23:01.861Z,3.70
2019-01-15T07:25:30.709Z,3.70
2019-01-15T07:27:59.523Z,3.80
2019-01-15T07:30:34.250Z,3.80
2019-01-15T07:33:02.919Z,3.80
2019-01-15T07:35:31.577Z,3.70
2019-01-15T07:38:00.221Z,3.80
2019-01-15T07:40:28.901Z,3.80
2019-01-15T07:42:57.580Z,3.90
2019-01-15T07:45:26.230Z,3.90
2019-01-15T07:47:54.922Z,3.90
2019-01-15T07:50:23.582Z,4.00
2019-01-15T07:52:52.343Z,4.00
2019-01-15T07:55:22.505Z,4.00
2019-01-15T07:57:51.177Z,4.00
2019-01-15T08:00:24.412Z,4.10
2019-01-15T08:02:54.160Z,4.10
2019-01-15T08:05:24.425Z,4.10
2019-01-15T08:07:53.329Z,4.10
2019-01-15T08:10:21.975Z,4.20
2019-01-15T08:12:50.825Z,4.20
2019-01-15T08:15:25.455Z,4.20
2019-01-15T08:17:54.106Z,4.20
2019-01-15T08:20:22.890Z,4.30
2019-01-15T08:22:51.595Z,4.30
2019-01-15T08:25:20.406Z,4.30
2019-01-15T08:27:49.066Z,4.40
2019-01-15T08:30:29.379Z,4.50
2019-01-15T08:32:58.029Z,4.50
2019-01-15T08:35:26.916Z,4.50
2019-01-15T08:37:55.578Z,4.50
2019-01-15T08:40:24.452Z,4.50
2019-01-15T08:42:53.152Z,4.50
2019-01-15T08:45:21.792Z,4.50
2019-01-15T08:48:00.973Z,4.50
2019-01-15T08:50:31.682Z,4.50
2019-01-15T08:53:00.381Z,4.60
2019-01-15T08:55:29.046Z,4.50
2019-01-15T08:57:57.689Z,4.60
2019-01-15T09:00:26.373Z,4.60
2019-01-15T09:02:55.034Z,4.70
2019-01-15T09:05:23.714Z,4.70
2019-01-15T09:07:52.359Z,4.80
2019-01-15T09:10:21.053Z,4.80
2019-01-15T09:12:49.699Z,4.80
2019-01-15T09:15:20.542Z,4.80
2019-01-15T09:17:49.296Z,4.80
2019-01-15T09:20:19.581Z,4.90
2019-01-15T09:22:48.329Z,4.90
2019-01-15T09:25:16.986Z,4.90
2019-01-15T09:27:45.662Z,4.90
2019-01-15T09:30:22.198Z,4.90
2019-01-15T09:32:51.382Z,4.90
2019-01-15T09:35:20.130Z,4.90
2019-01-15T09:37:49.854Z,5.00
2019-01-15T09:40:20.325Z,4.90
2019-01-15T09:42:48.977Z,5.00
2019-01-15T09:45:19.465Z,5.00
2019-01-15T09:47:49.801Z,5.00
2019-01-15T09:50:19.636Z,5.10
2019-01-15T09:52:48.797Z,5.00
2019-01-15T09:55:17.443Z,5.00
2019-01-15T09:57:46.130Z,5.00
2019-01-15T10:00:19.595Z,5.10
2019-01-15T10:02:48.343Z,5.10
2019-01-15T10:05:17.028Z,5.10
2019-01-15T10:07:45.665Z,5.10
2019-01-15T10:10:18.545Z,5.10
2019-01-15T10:12:47.227Z,5.20
2019-01-15T10:15:20.795Z,5.20
2019-01-15T10:17:49.475Z,5.30
2019-01-15T10:20:19.442Z,5.30
2019-01-15T10:22:48.913Z,5.30
2019-01-15T10:25:24.864Z,5.30
2019-01-15T10:27:54.242Z,5.30
2019-01-15T10:30:36.486Z,5.20
2019-01-15T10:33:08.093Z,5.30
2019-01-15T10:35:39.702Z,5.30
2019-01-15T10:38:08.361Z,5.30
2019-01-15T10:40:37.054Z,5.30
2019-01-15T10:43:05.697Z,5.30
2019-01-15T10:45:34.445Z,5.40
2019-01-15T10:48:03.106Z,5.50
2019-01-15T10:50:31.790Z,5.50
2019-01-15T10:53:00.451Z,5.50
2019-01-15T10:55:29.150Z,5.50
2019-01-15T10:57:58.487Z,5.50
2019-01-15T11:00:27.330Z,5.50
2019-01-15T11:02:56.016Z,5.50
2019-01-15T11:05:24.673Z,5.50
2019-01-15T11:07:53.362Z,5.60
2019-01-15T11:10:22.023Z,5.60
2019-01-15T11:12:50.806Z,5.60
2019-01-15T11:15:19.463Z,5.60
2019-01-15T11:17:48.150Z,5.60
2019-01-15T11:20:19.015Z,5.60
2019-01-15T11:22:47.676Z,5.70
2019-01-15T11:25:16.455Z,5.70
2019-01-15T11:27:45.105Z,5.70
2019-01-15T11:30:15.102Z,5.70
2019-01-15T11:32:43.751Z,5.60
2019-01-15T11:35:13.532Z,5.60
2019-01-15T11:37:42.690Z,5.60
2019-01-15T11:40:16.079Z,5.60
2019-01-15T11:42:45.148Z,5.70
2019-01-15T11:45:16.122Z,5.70
2019-01-15T11:47:44.794Z,5.70
2019-01-15T11:50:21.678Z,5.80
2019-01-15T11:52:50.539Z,5.80
2019-01-15T11:55:19.225Z,5.80
2019-01-15T11:57:47.888Z,5.80
2019-01-15T12:00:21.209Z,5.80
2019-01-15T12:02:51.447Z,5.80
2019-01-15T12:05:24.478Z,5.90
2019-01-15T12:07:54.727Z,5.90
2019-01-15T12:10:27.798Z,5.90
2019-01-15T12:12:58.142Z,5.90
2019-01-15T12:15:31.226Z,5.90
2019-01-15T12:18:07.095Z,6.00
2019-01-15T12:20:46.074Z,6.10
2019-01-15T12:23:32.356Z,6.20
2019-01-15T12:26:05.219Z,6.20
2019-01-15T12:28:38.443Z,6.20
2019-01-15T12:31:08.678Z,6.30
2019-01-15T12:33:54.030Z,6.30
2019-01-15T12:36:30.359Z,6.40
2019-01-15T12:39:18.932Z,6.40
2019-01-15T12:42:01.298Z,6.40
2019-01-15T12:44:37.482Z,6.40
2019-01-15T12:47:10.282Z,6.40
2019-01-15T12:49:43.500Z,6.40
2019-01-15T12:52:25.725Z,6.40
2019-01-15T12:54:58.965Z,6.30
2019-01-15T12:57:29.206Z,6.30
2019-01-15T13:00:17.625Z,6.20
2019-01-15T13:02:56.483Z,6.20
2019-01-15T13:05:35.291Z,6.20
2019-01-15T13:08:20.799Z,6.20
2019-01-15T13:10:51.150Z,6.10
2019-01-15T13:13:21.393Z,6.20
2019-01-15T13:15:51.748Z,6.20
2019-01-15T13:18:22.072Z,6.20
2019-01-15T13:21:07.768Z,6.10
2019-01-15T13:23:44.094Z,6.10
2019-01-15T13:26:17.063Z,6.10
2019-01-15T13:28:56.069Z,6.00
2019-01-15T13:31:32.229Z,6.00
2019-01-15T13:34:02.501Z,5.90
2019-01-15T13:36:41.677Z,6.00
2019-01-15T13:39:11.933Z,5.90
2019-01-15T13:41:45.089Z,6.00
2019-01-15T13:44:21.325Z,6.00
2019-01-15T13:47:07.670Z,6.00
2019-01-15T13:49:53.041Z,6.00
2019-01-15T13:52:23.452Z,6.00
2019-01-15T13:55:10.050Z,6.00
2019-01-15T13:57:40.389Z,6.00
2019-01-15T14:00:28.646Z,6.10
2019-01-15T14:03:13.844Z,6.00
2019-01-15T14:05:44.073Z,6.00
2019-01-15T14:08:30.583Z,6.00
2019-01-15T14:11:17.304Z,5.90
2019-01-15T14:14:04.051Z,5.90
2019-01-15T14:16:52.084Z,5.90
2019-01-15T14:19:38.553Z,5.90
2019-01-15T14:22:08.800Z,5.90
2019-01-15T14:24:58.576Z,5.90
2019-01-15T14:27:36.567Z,6.00
2019-01-15T14:30:24.787Z,6.00
2019-01-15T14:33:00.558Z,6.00
2019-01-15T14:35:30.891Z,5.90
2019-01-15T14:38:17.658Z,5.80
2019-01-15T14:41:03.711Z,5.80
2019-01-15T14:43:36.812Z,5.80
2019-01-15T14:46:19.186Z,5.70
2019-01-15T14:48:49.435Z,5.70
2019-01-15T14:51:22.805Z,5.80
2019-01-15T14:53:53.034Z,5.70
2019-01-15T14:56:25.820Z,5.70
2019-01-15T14:58:56.014Z,5.70
2019-01-15T15:01:38.428Z,5.70
2019-01-15T15:04:08.668Z,5.70
2019-01-15T15:06:38.926Z,5.70
2019-01-15T15:09:19.401Z,5.70
2019-01-15T15:11:49.666Z,5.70
2019-01-15T15:14:19.893Z,5.70
2019-01-15T15:19:41.514Z,5.70
2019-01-15T15:22:28.062Z,5.70
2019-01-15T15:25:00.746Z,5.70
2019-01-15T15:27:46.274Z,5.60
2019-01-15T15:30:34.965Z,5.70
2019-01-15T15:33:17.274Z,5.60
2019-01-15T15:35:59.267Z,5.60
2019-01-15T15:38:38.064Z,5.60
2019-01-15T15:41:08.310Z,5.60
2019-01-15T15:43:41.518Z,5.70
2019-01-15T15:46:11.743Z,5.70
2019-01-15T15:48:41.985Z,5.80
2019-01-15T15:51:18.046Z,5.80
2019-01-15T15:53:50.910Z,5.80
2019-01-15T15:56:21.139Z,5.80
2019-01-15T15:59:07.313Z,5.80
2019-01-15T16:01:37.555Z,5.80
2019-01-15T16:04:10.186Z,5.80
2019-01-15T16:06:56.716Z,5.80
2019-01-15T16:09:26.951Z,5.80
2019-01-15T16:12:12.089Z,5.80
2019-01-15T16:14:44.981Z,5.80
2019-01-15T16:17:30.103Z,5.80
2019-01-15T16:20:09.282Z,5.80
2019-01-15T16:22:39.536Z,5.80
2019-01-15T16:25:26.902Z,5.80
2019-01-15T16:28:05.734Z,5.80
2019-01-15T16:30:53.794Z,5.80
2019-01-15T16:33:24.071Z,5.80
2019-01-15T16:35:59.793Z,5.80
2019-01-15T16:38:32.988Z,5.80
2019-01-15T16:41:03.241Z,5.80
2019-01-15T16:43:45.587Z,5.80
2019-01-15T16:46:26.062Z,5.80
2019-01-15T16:48:56.392Z,5.80
2019-01-15T16:51:35.201Z,5.80
2019-01-15T16:54:08.238Z,5.80
2019-01-15T16:56:50.282Z,5.80
2019-01-15T16:59:29.649Z,5.80
2019-01-15T17:02:09.073Z,5.80
2019-01-15T17:04:42.188Z,5.90
2019-01-15T17:07:27.563Z,5.90
2019-01-15T17:10:13.936Z,5.90
2019-01-15T17:12:44.238Z,5.90
2019-01-15T17:15:14.441Z,5.90
2019-01-15T17:17:53.584Z,5.90
2019-01-15T17:20:23.797Z,5.90
2019-01-15T17:22:54.043Z,6.00
2019-01-15T17:25:24.299Z,5.90
2019-01-15T17:27:58.022Z,5.90
2019-01-15T17:30:44.826Z,5.90
2019-01-15T17:33:31.198Z,5.90
2019-01-15T17:36:01.469Z,5.90
2019-01-15T17:38:34.384Z,5.90
2019-01-15T17:41:04.616Z,6.00
2019-01-15T17:43:51.155Z,6.00
2019-01-15T17:46:23.973Z,6.00
2019-01-15T17:49:03.205Z,6.00
2019-01-15T17:51:36.236Z,6.00
2019-01-15T17:54:06.686Z,6.00
2019-01-15T17:56:52.179Z,6.00
2019-01-15T17:59:31.392Z,6.00
2019-01-15T18:02:07.223Z,6.00
2019-01-15T18:04:49.683Z,6.00
2019-01-15T18:07:22.866Z,6.00
2019-01-15T18:10:01.884Z,6.00
2019-01-15T18:12:41.080Z,6.10
2019-01-15T18:15:14.377Z,6.10
2019-01-15T18:17:47.562Z,6.10
2019-01-15T18:20:23.458Z,6.10
2019-01-15T18:23:02.191Z,6.10
2019-01-15T18:25:32.449Z,6.10
2019-01-15T18:28:05.481Z,6.10
2019-01-15T18:30:38.921Z,6.10
2019-01-15T18:33:21.006Z,6.10
2019-01-15T18:35:51.265Z,6.10
2019-01-15T18:38:37.834Z,6.10
2019-01-15T18:41:19.954Z,6.10
2019-01-15T18:43:59.395Z,6.10
2019-01-15T18:46:44.398Z,6.10
2019-01-15T18:49:17.154Z,6.10
2019-01-15T18:52:03.545Z,6.10
2019-01-15T18:54:33.784Z,6.10
2019-01-15T18:57:04.059Z,6.20
2019-01-15T18:59:50.645Z,6.10
2019-01-15T19:02:35.713Z,6.10
2019-01-15T19:05:08.010Z,6.10
2019-01-15T19:07:40.958Z,6.20
2019-01-15T19:10:28.118Z,6.20
2019-01-15T19:13:04.414Z,6.20
2019-01-15T19:15:43.688Z,6.10
2019-01-15T19:18:25.699Z,6.20
2019-01-15T19:21:07.855Z,6.20
2019-01-15T19:23:43.942Z,6.20
2019-01-15T19:26:14.198Z,6.20
2019-01-15T19:28:47.137Z,6.20
2019-01-15T19:31:33.714Z,6.20
2019-01-15T19:34:09.686Z,6.20
2019-01-15T19:36:40.113Z,6.20
2019-01-15T19:39:28.313Z,6.20
2019-01-15T19:42:10.416Z,6.20
2019-01-15T19:44:46.415Z,6.20
2019-01-15T19:47:16.654Z,6.20
2019-01-15T19:49:46.897Z,6.20
2019-01-15T19:52:17.182Z,6.20
2019-01-15T19:54:59.539Z,6.20
2019-01-15T19:57:29.765Z,6.20
2019-01-15T20:00:11.747Z,6.20
2019-01-15T20:02:47.966Z,6.20
2019-01-15T20:05:18.241Z,6.20
2019-01-15T20:07:50.978Z,6.20
2019-01-15T20:10:23.945Z,6.20
2019-01-15T20:12:54.185Z,6.20
2019-01-15T20:15:41.718Z,6.20
2019-01-15T20:18:27.943Z,6.20
2019-01-15T20:21:07.390Z,6.20
2019-01-15T20:23:43.273Z,6.20
2019-01-15T20:26:25.448Z,6.30
2019-01-15T20:28:55.825Z,6.20
2019-01-15T20:31:26.073Z,6.20
2019-01-15T20:34:14.278Z,6.30
2019-01-15T20:36:46.962Z,6.30
2019-01-15T20:39:29.101Z,6.30
2019-01-15T20:42:08.380Z,6.20
2019-01-15T20:44:50.681Z,6.20
2019-01-15T20:47:25.557Z,6.20
2019-01-15T20:50:09.085Z,6.20
2019-01-15T20:52:45.047Z,6.20
2019-01-15T20:55:31.586Z,6.20
2019-01-15T20:58:04.637Z,6.20
2019-01-15T21:00:43.705Z,6.20
2019-01-15T21:03:30.030Z,6.20
2019-01-15T21:06:06.241Z,6.30
2019-01-15T21:08:36.625Z,6.30
2019-01-15T21:11:21.640Z,6.30
2019-01-15T21:14:06.669Z,6.20
2019-01-15T21:16:52.997Z,6.20
2019-01-15T21:19:39.433Z,6.20
2019-01-15T21:22:27.911Z,6.20
2019-01-15T21:25:03.911Z,6.20
2019-01-15T21:27:40.078Z,6.20
2019-01-15T21:30:22.630Z,6.20
2019-01-15T21:33:07.791Z,6.20
2019-01-15T21:35:56.134Z,6.20
2019-01-15T21:38:26.510Z,6.20
2019-01-15T21:41:03.091Z,6.20
2019-01-15T21:43:49.635Z,6.20
2019-01-15T21:46:19.873Z,6.20
2019-01-15T21:48:59.211Z,6.20
2019-01-15T21:51:45.649Z,6.20
2019-01-15T21:54:32.082Z,6.20
2019-01-15T21:57:02.351Z,6.10
2019-01-15T21:59:38.161Z,6.10
2019-01-15T22:02:14.186Z,6.10
2019-01-15T22:04:50.157Z,6.10
2019-01-15T22:07:20.410Z,6.20
2019-01-15T22:09:56.757Z,6.10
2019-01-15T22:12:43.245Z,6.10
2019-01-15T22:15:16.344Z,6.10
2019-01-15T22:18:02.658Z,6.10
2019-01-15T22:20:41.952Z,6.00
2019-01-15T22:23:18.041Z,6.10
2019-01-15T22:25:48.293Z,6.10
2019-01-15T22:28:18.534Z,6.10
2019-01-15T22:30:51.781Z,6.10
2019-01-15T22:33:22.035Z,6.10
2019-01-15T22:35:58.590Z,6.00
2019-01-15T22:38:31.781Z,6.00
2019-01-15T22:41:02.041Z,6.00
2019-01-15T22:43:34.849Z,6.00
2019-01-15T22:46:07.655Z,6.00
2019-01-15T22:48:37.902Z,6.00
2019-01-15T22:51:19.914Z,6.00
2019-01-15T22:54:02.196Z,6.00
2019-01-15T22:56:48.813Z,6.00
2019-01-15T22:59:19.077Z,6.00
2019-01-15T23:01:52.866Z,6.10
2019-01-15T23:04:28.739Z,6.00
2019-01-15T23:07:16.814Z,6.00
2019-01-15T23:09:52.990Z,6.00
2019-01-15T23:12:25.798Z,6.10
2019-01-15T23:14:56.017Z,6.00
2019-01-15T23:17:28.760Z,6.00
2019-01-15T23:20:10.682Z,6.00
2019-01-15T23:22:49.711Z,6.00
2019-01-15T23:25:29.478Z,6.00
2019-01-15T23:27:59.724Z,5.90
2019-01-15T23:30:29.991Z,5.90
2019-01-15T23:33:03.017Z,5.90
2019-01-15T23:35:35.679Z,5.90
2019-01-15T23:38:05.917Z,5.90
2019-01-15T23:40:45.244Z,5.90
2019-01-15T23:43:15.476Z,5.90
2019-01-15T23:45:57.858Z,5.90
2019-01-15T23:48:34.097Z,5.90
2019-01-15T23:51:04.454Z,6.00
2019-01-15T23:53:50.803Z,6.00
2019-01-15T23:56:21.041Z,6.00
2019-01-15T23:58:53.840Z,6.00
